Clarkson Valley, Missouri
Current Conditions -  °F | °C
As of 1:54 PM on Thursday 20 Nov 2014 (Local Time) from KSUS Reporting Station
Broken Clouds Broken Clouds  
Wind Chill: 30°   Ceiling: 9000
Heat Index: 36°   Visibility: 10mi
Dew Point: 18°   Wind: 7mph
Humidity: 48%   Direction: 280°W
Pressure: 30.2"   Gusts: NA
Location:  38.6517°N, 90.5361°W
Report Text: KSUS 201954Z 28006KT 10SM BKN090 02/M08 A3020 RMK AO2 SLP238 T00221078
Loading
Personal Weather Stations






























Interactive Weather Map New forecast layout! Learn more

10-Day Weather Forecast

Advertisements
Track Severe Weather on mobile